Time;durP1;ratioP1;P1;durP2;ratioP2;P2;SDS_P1;SDS_P2;PMS_P1;PMS_P2;Temp;Humidity;BMP_temperature;BMP_pressure;BME280_temperature;BME280_humidity;BME280_pressure;Samples;Min_cycle;Max_cycle;Signal;HPM_P1;HPM_P2
2024/04/12 00:00:47;;;;;;;;;;;;;;;;;;109214;1254;63101;-79
2024/04/12 00:03:33;;;;;;;;;;;;;;;;;;109238;1254;59416;-78
2024/04/12 00:06:05;;;;;;;;;;;;;;;;;;109159;1254;59362;-79
2024/04/12 00:08:32;;;;;;;;;;;;;;;;;;109221;1254;61117;-78
2024/04/12 00:11:00;;;;;;;;;;;;;;;;;;109239;1254;59588;-79
2024/04/12 00:13:31;;;;;;;;;;;;;;;;;;109091;1254;59717;-79
2024/04/12 00:15:57;;;;;;;;;;;;;;;;;;109049;1257;59688;-79
2024/04/12 00:18:28;;;;;;;;;;;;;;;;;;109038;1254;59666;-78
2024/04/12 00:20:58;;;;;;;;;;;;;;;;;;109043;1254;59108;-80
2024/04/12 00:23:25;;;;;;;;;;;;;;;;;;108955;1254;59692;-78
2024/04/12 00:25:55;;;;;;;;;;;;;;;;;;109101;1254;61987;-78
2024/04/12 00:28:22;;;;;;;;;;;;;;;;;;109038;1254;59703;-78
2024/04/12 00:30:48;;;;;;;;;;;;;;;;;;109030;1254;59720;-79
2024/04/12 00:33:19;;;;;;;;;;;;;;;;;;109084;1254;58997;-79
2024/04/12 00:35:49;;;;;;;;;;;;;;;;;;109071;1254;59599;-79
2024/04/12 00:38:16;;;;;;;;;;;;;;;;;;109084;1254;62121;-79
2024/04/12 00:40:46;;;;;;;;;;;;;;;;;;109070;1256;59111;-79
2024/04/12 00:43:12;;;;;;;;;;;;;;;;;;109042;1254;59926;-79
2024/04/12 00:45:39;;;;;;;;;;;;;;;;;;109071;1255;59595;-80
2024/04/12 00:48:07;;;;;;;;;;;;;;;;;;109066;1254;59632;-80
2024/04/12 00:50:37;;;;;;;;;;;;;;;;;;109088;1254;61968;-78
2024/04/12 00:53:09;;;;;;;;;;;;;;;;;;109032;1254;58986;-78
2024/04/12 00:55:38;;;;;;;;;;;;;;;;;;109278;1254;60120;-80
2024/04/12 00:58:06;;;;;;;;;;;;;;;;;;109218;1254;59225;-78
2024/04/12 01:00:35;;;;;;;;;;;;;;;;;;109203;1254;59275;-79
2024/04/12 01:03:14;;;;;;;;;;;;;;;;;;109213;1254;60834;-78
2024/04/12 01:05:41;;;;;;;;;;;;;;;;;;109195;1254;59065;-80
2024/04/12 01:08:07;;;;;;;;;;;;;;;;;;109214;1254;59645;-79
2024/04/12 01:10:36;;;;;;;;;;;;;;;;;;109393;1251;59611;-78
2024/04/12 01:13:04;;;;;;;;;;;;;;;;;;109266;1253;59391;-80
2024/04/12 01:15:32;;;;;;;;;;;;;;;;;;109253;1253;61809;-79
2024/04/12 01:18:04;;;;;;;;;;;;;;;;;;109247;1254;59576;-79
2024/04/12 01:20:32;;;;;;;;;;;;;;;;;;109240;1253;59467;-79
2024/04/12 01:22:58;;;;;;;;;;;;;;;;;;109121;1254;59031;-78
2024/04/12 01:25:25;;;;;;;;;;;;;;;;;;109249;1252;59789;-79
2024/04/12 01:27:51;;;;;;;;;;;;;;;;;;109229;1252;61911;-79
2024/04/12 01:30:20;;;;;;;;;;;;;;;;;;109256;1253;59456;-78
2024/04/12 01:32:50;;;;;;;;;;;;;;;;;;109232;1253;59162;-78
2024/04/12 01:35:16;;;;;;;;;;;;;;;;;;109236;1253;59021;-78
2024/04/12 01:37:43;;;;;;;;;;;;;;;;;;109240;1253;59250;-79
2024/04/12 01:40:12;;;;;;;;;;;;;;;;;;109265;1253;61907;-80
2024/04/12 01:42:42;;;;;;;;;;;;;;;;;;109264;1252;59230;-79
2024/04/12 01:45:15;;;;;;;;;;;;;;;;;;109158;1253;59683;-79
2024/04/12 01:47:42;;;;;;;;;;;;;;;;;;109163;1252;58954;-79
2024/04/12 01:50:12;;;;;;;;;;;;;;;;;;109199;1253;59261;-78
2024/04/12 01:52:53;;;;;;;;;;;;;;;;;;109246;1252;63070;-78
2024/04/12 01:55:20;;;;;;;;;;;;;;;;;;109196;1254;59149;-79
2024/04/12 01:57:46;;;;;;;;;;;;;;;;;;109327;1251;59731;-79
2024/04/12 02:00:16;;;;;;;;;;;;;;;;;;109387;1251;58999;-79
2024/04/12 02:02:43;;;;;;;;;;;;;;;;;;109355;1251;59052;-79
2024/04/12 02:05:09;;;;;;;;;;;;;;;;;;109450;1251;59647;-78
2024/04/12 02:07:39;;;;;;;;;;;;;;;;;;109407;1251;59362;-79
2024/04/12 02:10:07;;;;;;;;;;;;;;;;;;109385;1251;59693;-79
2024/04/12 02:12:36;;;;;;;;;;;;;;;;;;109311;1251;59632;-78
2024/04/12 02:15:19;;;;;;;;;;;;;;;;;;109230;1252;59145;-78
2024/04/12 02:17:46;;;;;;;;;;;;;;;;;;109150;1253;61934;-80
2024/04/12 02:20:19;;;;;;;;;;;;;;;;;;109269;1252;60146;-78
2024/04/12 02:22:45;;;;;;;;;;;;;;;;;;109257;1252;59614;-79
2024/04/12 02:25:13;;;;;;;;;;;;;;;;;;109246;1252;59423;-79
2024/04/12 02:27:39;;;;;;;;;;;;;;;;;;109223;1253;59706;-79
2024/04/12 02:30:06;;;;;;;;;;;;;;;;;;109314;1252;61567;-79
2024/04/12 02:32:32;;;;;;;;;;;;;;;;;;109456;1253;58936;-79
2024/04/12 02:34:59;;;;;;;;;;;;;;;;;;109264;1252;59716;-80
2024/04/12 02:37:25;;;;;;;;;;;;;;;;;;109250;1252;59676;-79
2024/04/12 02:39:53;;;;;;;;;;;;;;;;;;109299;1252;59572;-78
2024/04/12 02:42:22;;;;;;;;;;;;;;;;;;109135;1253;60783;-80
2024/04/12 02:44:48;;;;;;;;;;;;;;;;;;109256;1252;59603;-80
2024/04/12 02:47:14;;;;;;;;;;;;;;;;;;109232;1252;59408;-79
2024/04/12 02:49:40;;;;;;;;;;;;;;;;;;109250;1252;59228;-79
2024/04/12 02:52:10;;;;;;;;;;;;;;;;;;109287;1252;59060;-80
2024/04/12 02:54:37;;;;;;;;;;;;;;;;;;109239;1252;60719;-79
2024/04/12 02:57:03;;;;;;;;;;;;;;;;;;109340;1251;59243;-79
2024/04/12 02:59:29;;;;;;;;;;;;;;;;;;109412;1251;59057;-78
2024/04/12 03:01:56;;;;;;;;;;;;;;;;;;109357;1251;59693;-78
2024/04/12 03:04:22;;;;;;;;;;;;;;;;;;109316;1251;59596;-78
2024/04/12 03:06:48;;;;;;;;;;;;;;;;;;109398;1250;59163;-80
2024/04/12 03:09:18;;;;;;;;;;;;;;;;;;109377;1251;59581;-80
2024/04/12 03:11:44;;;;;;;;;;;;;;;;;;109305;1251;59669;-80
2024/04/12 03:14:15;;;;;;;;;;;;;;;;;;109265;1252;59051;-80
2024/04/12 03:16:41;;;;;;;;;;;;;;;;;;109254;1252;59509;-80
2024/04/12 03:19:07;;;;;;;;;;;;;;;;;;109248;1253;59586;-79
2024/04/12 03:21:34;;;;;;;;;;;;;;;;;;109275;1252;59101;-78
2024/04/12 03:24:01;;;;;;;;;;;;;;;;;;109284;1252;59702;-79
2024/04/12 03:26:27;;;;;;;;;;;;;;;;;;109260;1252;59501;-79
2024/04/12 03:28:54;;;;;;;;;;;;;;;;;;109270;1252;59155;-78
2024/04/12 03:31:20;;;;;;;;;;;;;;;;;;109272;1253;59605;-78
2024/04/12 03:33:46;;;;;;;;;;;;;;;;;;109258;1252;59529;-78
2024/04/12 03:41:46;;;;;;;;;;;;;;;;;;109248;1253;58989;-78
2024/04/12 03:44:13;;;;;;;;;;;;;;;;;;109268;1252;60387;-78
2024/04/12 03:46:43;;;;;;;;;;;;;;;;;;109242;1253;59351;-78
2024/04/12 03:49:09;;;;;;;;;;;;;;;;;;109497;1252;59055;-79
2024/04/12 03:51:40;;;;;;;;;;;;;;;;;;109459;1252;58924;-78
2024/04/12 03:54:11;;;;;;;;;;;;;;;;;;109355;1253;59862;-78
2024/04/12 03:56:37;;;;;;;;;;;;;;;;;;109279;1251;61590;-79
2024/04/12 03:59:04;;;;;;;;;;;;;;;;;;109342;1253;59122;-78
2024/04/12 04:01:31;;;;;;;;;;;;;;;;;;109236;1252;59798;-80
2024/04/12 04:03:57;;;;;;;;;;;;;;;;;;109251;1252;59628;-78
2024/04/12 04:06:24;;;;;;;;;;;;;;;;;;109267;1252;58987;-78
2024/04/12 04:08:51;;;;;;;;;;;;;;;;;;109227;1252;62112;-78
2024/04/12 04:11:18;;;;;;;;;;;;;;;;;;109282;1251;59021;-79
2024/04/12 04:13:46;;;;;;;;;;;;;;;;;;109369;1251;59722;-78
2024/04/12 04:16:16;;;;;;;;;;;;;;;;;;109308;1251;59311;-80
2024/04/12 04:18:48;;;;;;;;;;;;;;;;;;109317;1251;59680;-78
2024/04/12 04:21:14;;;;;;;;;;;;;;;;;;109320;1250;60890;-79
2024/04/12 04:23:42;;;;;;;;;;;;;;;;;;109319;1253;58983;-78
2024/04/12 04:26:08;;;;;;;;;;;;;;;;;;109222;1252;59746;-80
2024/04/12 04:28:34;;;;;;;;;;;;;;;;;;109225;1252;59022;-80
2024/04/12 04:31:05;;;;;;;;;;;;;;;;;;109247;1253;59691;-81
2024/04/12 04:33:33;;;;;;;;;;;;;;;;;;109260;1252;61968;-80
2024/04/12 04:36:08;;;;;;;;;;;;;;;;;;109257;1252;59424;-80
2024/04/12 04:38:36;;;;;;;;;;;;;;;;;;109248;1252;59142;-79
2024/04/12 04:41:06;;;;;;;;;;;;;;;;;;109317;1251;58993;-80
2024/04/12 04:43:33;;;;;;;;;;;;;;;;;;109394;1251;59093;-79
2024/04/12 04:46:10;;;;;;;;;;;;;;;;;;109411;1250;62010;-81
2024/04/12 04:48:36;;;;;;;;;;;;;;;;;;109422;1251;58983;-81
2024/04/12 04:51:02;;;;;;;;;;;;;;;;;;109380;1251;59136;-79
2024/04/12 04:53:29;;;;;;;;;;;;;;;;;;109264;1253;59230;-79
2024/04/12 04:56:01;;;;;;;;;;;;;;;;;;109349;1251;59700;-79
2024/04/12 04:58:34;;;;;;;;;;;;;;;;;;109398;1251;62681;-81
2024/04/12 05:01:01;;;;;;;;;;;;;;;;;;109511;1251;58996;-81
2024/04/12 05:03:27;;;;;;;;;;;;;;;;;;109486;1251;59016;-80
2024/04/12 05:05:54;;;;;;;;;;;;;;;;;;109243;1252;59771;-79
2024/04/12 05:08:20;;;;;;;;;;;;;;;;;;109314;1252;59568;-81
2024/04/12 05:10:46;;;;;;;;;;;;;;;;;;109311;1253;58980;-80
2024/04/12 05:13:12;;;;;;;;;;;;;;;;;;109401;1251;59718;-81
2024/04/12 05:18:08;;;;;;;;;;;;;;;;;;109553;1251;58995;-80
2024/04/12 05:20:41;;;;;;;;;;;;;;;;;;109392;1253;59413;-80
2024/04/12 05:23:11;;;;;;;;;;;;;;;;;;109366;1252;63051;-80
2024/04/12 05:25:40;;;;;;;;;;;;;;;;;;109276;1252;59370;-79
2024/04/12 05:28:06;;;;;;;;;;;;;;;;;;109167;1252;59067;-80
2024/04/12 05:30:36;;;;;;;;;;;;;;;;;;109194;1253;59309;-81
2024/04/12 05:33:03;;;;;;;;;;;;;;;;;;109138;1252;59068;-81
2024/04/12 05:35:30;;;;;;;;;;;;;;;;;;109213;1252;62824;-79
2024/04/12 05:37:58;;;;;;;;;;;;;;;;;;108983;1252;59147;-79
2024/04/12 05:40:26;;;;;;;;;;;;;;;;;;109239;1252;59723;-79
2024/04/12 05:42:52;;;;;;;;;;;;;;;;;;109219;1253;59519;-78
2024/04/12 05:45:20;;;;;;;;;;;;;;;;;;109248;1252;59168;-80
2024/04/12 05:47:54;;;;;;;;;;;;;;;;;;109249;1252;62562;-79
2024/04/12 05:50:20;;;;;;;;;;;;;;;;;;109253;1253;59036;-81
2024/04/12 05:52:47;;;;;;;;;;;;;;;;;;109158;1253;59703;-79
2024/04/12 05:55:14;;;;;;;;;;;;;;;;;;109225;1252;59741;-80
2024/04/12 05:57:40;;;;;;;;;;;;;;;;;;109179;1252;59420;-79
2024/04/12 06:00:09;;;;;;;;;;;;;;;;;;109173;1252;59581;-79
2024/04/12 06:02:36;;;;;;;;;;;;;;;;;;109161;1252;59009;-80
2024/04/12 06:05:05;;;;;;;;;;;;;;;;;;109206;1252;60848;-81
2024/04/12 06:07:35;;;;;;;;;;;;;;;;;;109177;1253;59473;-81
2024/04/12 06:10:01;;;;;;;;;;;;;;;;;;109336;1252;58927;-79
2024/04/12 06:12:33;;;;;;;;;;;;;;;;;;109122;1256;189884;-79
2024/04/12 06:15:04;;;;;;;;;;;;;;;;;;109245;1252;59809;-81
2024/04/12 06:17:31;;;;;;;;;;;;;;;;;;109264;1251;59714;-79
2024/04/12 06:19:59;;;;;;;;;;;;;;;;;;109360;1255;59026;-81
2024/04/12 06:22:31;;;;;;;;;;;;;;;;;;109260;1253;59202;-81
2024/04/12 06:25:01;;;;;;;;;;;;;;;;;;109202;1252;61912;-81
2024/04/12 06:27:33;;;;;;;;;;;;;;;;;;109331;1251;59490;-81
2024/04/12 06:29:59;;;;;;;;;;;;;;;;;;109185;1252;59972;-80
2024/04/12 06:32:26;;;;;;;;;;;;;;;;;;109232;1253;59810;-79
2024/04/12 06:34:52;;;;;;;;;;;;;;;;;;109428;1253;58870;-82
2024/04/12 06:37:21;;;;;;;;;;;;;;;;;;109415;1251;58802;-80
2024/04/12 06:39:48;;;;;;;;;;;;;;;;;;109370;1252;60284;-81
2024/04/12 06:42:15;;;;;;;;;;;;;;;;;;109452;1251;59554;-81
2024/04/12 06:44:42;;;;;;;;;;;;;;;;;;109457;1253;58954;-79
2024/04/12 06:47:10;;;;;;;;;;;;;;;;;;109422;1250;58926;-80
2024/04/12 06:49:44;;;;;;;;;;;;;;;;;;109354;1252;60799;-81
2024/04/12 06:52:11;;;;;;;;;;;;;;;;;;109376;1252;59051;-81
2024/04/12 06:54:41;;;;;;;;;;;;;;;;;;109363;1252;59581;-80
2024/04/12 06:57:07;;;;;;;;;;;;;;;;;;109320;1253;59631;-81
2024/04/12 06:59:35;;;;;;;;;;;;;;;;;;109233;1253;60714;-81
2024/04/12 07:02:02;;;;;;;;;;;;;;;;;;109235;1251;61945;-80
2024/04/12 07:04:28;;;;;;;;;;;;;;;;;;109257;1252;59414;-81
2024/04/12 07:06:56;;;;;;;;;;;;;;;;;;109289;1251;59439;-81
2024/04/12 07:09:24;;;;;;;;;;;;;;;;;;109320;1251;59701;-80
2024/04/12 07:11:51;;;;;;;;;;;;;;;;;;109395;1251;59093;-82
2024/04/12 07:14:18;;;;;;;;;;;;;;;;;;109202;1252;62968;-81
2024/04/12 07:16:47;;;;;;;;;;;;;;;;;;109284;1252;59000;-80
2024/04/12 07:19:14;;;;;;;;;;;;;;;;;;109244;1252;59767;-81
2024/04/12 07:21:40;;;;;;;;;;;;;;;;;;109258;1251;59313;-80
2024/04/12 07:24:07;;;;;;;;;;;;;;;;;;109253;1253;59030;-80
2024/04/12 07:26:33;;;;;;;;;;;;;;;;;;109233;1253;59607;-80
2024/04/12 07:29:00;;;;;;;;;;;;;;;;;;109096;1251;59126;-82
2024/04/12 07:31:26;;;;;;;;;;;;;;;;;;109298;1253;59667;-80
2024/04/12 07:33:54;;;;;;;;;;;;;;;;;;109243;1251;59376;-82
2024/04/12 07:36:20;;;;;;;;;;;;;;;;;;109358;1251;58982;-81
2024/04/12 07:38:49;;;;;;;;;;;;;;;;;;109239;1252;59755;-82
2024/04/12 07:41:15;;;;;;;;;;;;;;;;;;109333;1252;59122;-82
2024/04/12 07:43:46;;;;;;;;;;;;;;;;;;109205;1253;59192;-81
2024/04/12 07:46:14;;;;;;;;;;;;;;;;;;109236;1255;59024;-82
2024/04/12 07:48:41;;;;;;;;;;;;;;;;;;109269;1252;58997;-80
2024/04/12 07:51:08;;;;;;;;;;;;;;;;;;109256;1251;60967;-82
2024/04/12 07:53:37;;;;;;;;;;;;;;;;;;109273;1252;59796;-82
2024/04/12 07:56:14;;;;;;;;;;;;;;;;;;109295;1251;60402;-83
2024/04/12 07:59:01;;;;;;;;;;;;;;;;;;109301;1252;59166;-81
2024/04/12 08:01:27;;;;;;;;;;;;;;;;;;109385;1251;58978;-83
2024/04/12 08:03:56;;;;;;;;;;;;;;;;;;109372;1253;62568;-82
2024/04/12 08:06:55;;;;;;;;;;;;;;;;;;109409;1253;59232;-82
2024/04/12 08:09:21;;;;;;;;;;;;;;;;;;109222;1251;59646;-82
2024/04/12 08:11:51;;;;;;;;;;;;;;;;;;109230;1253;59467;-82
2024/04/12 08:14:20;;;;;;;;;;;;;;;;;;109212;1252;59170;-82
2024/04/12 08:16:46;;;;;;;;;;;;;;;;;;109203;1251;62675;-82
2024/04/12 08:19:13;;;;;;;;;;;;;;;;;;109261;1253;59553;-81
2024/04/12 08:21:39;;;;;;;;;;;;;;;;;;109421;1251;60807;-82
2024/04/12 08:24:09;;;;;;;;;;;;;;;;;;109430;1253;58850;-82
2024/04/12 08:26:37;;;;;;;;;;;;;;;;;;109435;1253;59322;-82
2024/04/12 08:29:06;;;;;;;;;;;;;;;;;;109458;1251;62856;-82
2024/04/12 08:31:35;;;;;;;;;;;;;;;;;;109395;1255;59072;-82
2024/04/12 08:34:03;;;;;;;;;;;;;;;;;;109350;1253;60137;-82
2024/04/12 08:36:32;;;;;;;;;;;;;;;;;;109439;1251;58982;-82
2024/04/12 08:39:12;;;;;;;;;;;;;;;;;;109480;1251;58866;-82
2024/04/12 08:41:38;;;;;;;;;;;;;;;;;;109468;1251;62629;-82
2024/04/12 08:44:09;;;;;;;;;;;;;;;;;;109401;1253;59186;-82
2024/04/12 08:46:36;;;;;;;;;;;;;;;;;;109405;1252;60692;-82
2024/04/12 08:49:13;;;;;;;;;;;;;;;;;;109417;1251;59025;-81
2024/04/12 08:51:39;;;;;;;;;;;;;;;;;;109434;1251;59029;-82
2024/04/12 08:54:06;;;;;;;;;;;;;;;;;;109466;1251;58904;-82
2024/04/12 08:56:32;;;;;;;;;;;;;;;;;;109431;1252;59112;-82
2024/04/12 08:59:07;;;;;;;;;;;;;;;;;;109412;1251;59513;-82
2024/04/12 09:01:35;;;;;;;;;;;;;;;;;;109424;1251;59205;-82
2024/04/12 09:04:12;;;;;;;;;;;;;;;;;;109451;1251;58893;-82
2024/04/12 09:06:38;;;;;;;;;;;;;;;;;;109409;1253;60841;-82
2024/04/12 09:09:04;;;;;;;;;;;;;;;;;;109380;1251;59244;-82
2024/04/12 09:11:31;;;;;;;;;;;;;;;;;;109423;1253;58990;-82
2024/04/12 09:14:08;;;;;;;;;;;;;;;;;;109396;1251;59481;-82
2024/04/12 09:16:43;;;;;;;;;;;;;;;;;;109504;1251;59124;-82
2024/04/12 09:19:14;;;;;;;;;;;;;;;;;;109387;1251;61893;-82
2024/04/12 09:21:47;;;;;;;;;;;;;;;;;;109514;1251;59349;-82
2024/04/12 09:24:16;;;;;;;;;;;;;;;;;;109369;1251;59835;-82
2024/04/12 09:26:55;;;;;;;;;;;;;;;;;;109281;1251;59649;-82
2024/04/12 09:29:27;;;;;;;;;;;;;;;;;;109143;1253;59562;-82
2024/04/12 09:34:39;;;;;;;;;;;;;;;;;;109202;1253;60695;-82
2024/04/12 09:37:28;;;;;;;;;;;;;;;;;;109237;1251;60389;-82
2024/04/12 09:45:17;;;;;;;;;;;;;;;;;;109073;1253;62003;-82
2024/04/12 10:37:28;;;;;;;;;;;;;;;;;;109285;1251;60351;-81
2024/04/12 10:39:55;;;;;;;;;;;;;;;;;;109318;1250;62004;-81
2024/04/12 10:42:30;;;;;;;;;;;;;;;;;;109372;1253;59056;-81
2024/04/12 10:44:59;;;;;;;;;;;;;;;;;;109223;1256;59794;-81
2024/04/12 10:47:25;;;;;;;;;;;;;;;;;;109134;1253;60684;-80
2024/04/12 10:49:52;;;;;;;;;;;;;;;;;;109207;1252;58937;-81
2024/04/12 10:52:28;;;;;;;;;;;;;;;;;;109235;1253;59660;-81
2024/04/12 10:54:55;;;;;;;;;;;;;;;;;;109391;1252;58924;-80
2024/04/12 10:57:23;;;;;;;;;;;;;;;;;;109382;1252;60085;-82
2024/04/12 10:59:51;;;;;;;;;;;;;;;;;;109380;1253;59446;-81
2024/04/12 11:02:17;;;;;;;;;;;;;;;;;;109279;1253;59657;-81
2024/04/12 11:07:28;;;;;;;;;;;;;;;;;;109274;1251;59033;-80
2024/04/12 11:09:57;;;;;;;;;;;;;;;;;;109216;1253;59618;-81
2024/04/12 11:12:24;;;;;;;;;;;;;;;;;;109249;1253;60376;-81
2024/04/12 11:15:00;;;;;;;;;;;;;;;;;;109191;1252;59059;-80
2024/04/12 11:31:15;;;;;;;;;;;;;;;;;;109212;1253;60757;-80
2024/04/12 11:33:42;;;;;;;;;;;;;;;;;;109207;1253;59457;-80
2024/04/12 11:36:10;;;;;;;;;;;;;;;;;;109200;1252;59635;-80
2024/04/12 11:38:37;;;;;;;;;;;;;;;;;;109229;1253;59092;-80
2024/04/12 11:41:04;;;;;;;;;;;;;;;;;;109209;1253;59823;-80
2024/04/12 11:43:32;;;;;;;;;;;;;;;;;;109324;1253;61214;-81
2024/04/12 11:45:58;;;;;;;;;;;;;;;;;;109528;1251;59073;-80
2024/04/12 11:48:29;;;;;;;;;;;;;;;;;;109423;1253;59105;-81
2024/04/12 11:50:57;;;;;;;;;;;;;;;;;;109387;1251;59251;-80
2024/04/12 11:53:25;;;;;;;;;;;;;;;;;;109431;1252;59113;-80
2024/04/12 11:55:51;;;;;;;;;;;;;;;;;;109486;1251;61869;-81
2024/04/12 11:58:17;;;;;;;;;;;;;;;;;;109215;1253;59104;-81
2024/04/12 12:00:46;;;;;;;;;;;;;;;;;;109267;1253;60148;-82
2024/04/12 12:03:15;;;;;;;;;;;;;;;;;;109252;1254;59791;-81
2024/04/12 12:05:42;;;;;;;;;;;;;;;;;;109162;1252;59320;-80
2024/04/12 12:08:13;;;;;;;;;;;;;;;;;;109206;1257;60753;-81
2024/04/12 12:10:39;;;;;;;;;;;;;;;;;;109324;1251;59329;-80
2024/04/12 12:13:05;;;;;;;;;;;;;;;;;;109219;1253;59044;-80
2024/04/12 12:15:31;;;;;;;;;;;;;;;;;;109265;1251;59124;-81
2024/04/12 12:17:58;;;;;;;;;;;;;;;;;;109306;1256;59165;-81
2024/04/12 12:20:24;;;;;;;;;;;;;;;;;;109194;1252;59395;-81
2024/04/12 12:22:50;;;;;;;;;;;;;;;;;;109330;1253;59588;-80
2024/04/12 12:25:16;;;;;;;;;;;;;;;;;;109312;1251;59749;-81
2024/04/12 12:27:43;;;;;;;;;;;;;;;;;;109315;1253;59045;-81
2024/04/12 12:30:14;;;;;;;;;;;;;;;;;;109173;1253;59659;-80
2024/04/12 12:32:40;;;;;;;;;;;;;;;;;;109172;1253;60808;-81
2024/04/12 12:35:06;;;;;;;;;;;;;;;;;;109261;1251;59486;-81
2024/04/12 12:37:34;;;;;;;;;;;;;;;;;;109283;1253;59622;-81
2024/04/12 12:40:01;;;;;;;;;;;;;;;;;;109225;1253;59453;-81
2024/04/12 12:42:31;;;;;;;;;;;;;;;;;;109195;1256;58978;-80
2024/04/12 12:44:58;;;;;;;;;;;;;;;;;;109184;1251;60744;-81
2024/04/12 12:47:25;;;;;;;;;;;;;;;;;;109249;1253;59920;-81
2024/04/12 12:49:53;;;;;;;;;;;;;;;;;;109224;1251;60017;-81
2024/04/12 12:52:19;;;;;;;;;;;;;;;;;;109250;1251;59784;-80
2024/04/12 12:54:45;;;;;;;;;;;;;;;;;;109171;1253;59012;-81
2024/04/12 12:57:12;;;;;;;;;;;;;;;;;;109238;1253;59766;-80
2024/04/12 12:59:42;;;;;;;;;;;;;;;;;;109233;1253;59514;-80
2024/04/12 13:02:14;;;;;;;;;;;;;;;;;;109190;1256;59695;-82
2024/04/12 13:04:40;;;;;;;;;;;;;;;;;;109206;1254;59671;-81
2024/04/12 13:07:07;;;;;;;;;;;;;;;;;;109246;1253;59054;-82
2024/04/12 13:09:35;;;;;;;;;;;;;;;;;;109326;1256;62579;-81
2024/04/12 13:12:01;;;;;;;;;;;;;;;;;;109309;1251;59116;-81
2024/04/12 13:14:27;;;;;;;;;;;;;;;;;;109267;1253;59592;-81
2024/04/12 13:16:54;;;;;;;;;;;;;;;;;;109178;1254;59806;-82
2024/04/12 13:19:21;;;;;;;;;;;;;;;;;;109251;1253;59988;-81
2024/04/12 13:21:49;;;;;;;;;;;;;;;;;;109207;1253;59160;-81
2024/04/12 13:24:15;;;;;;;;;;;;;;;;;;109251;1253;59606;-80
2024/04/12 13:26:50;;;;;;;;;;;;;;;;;;109293;1251;59096;-81
2024/04/12 13:29:16;;;;;;;;;;;;;;;;;;109154;1251;59084;-82
2024/04/12 13:31:43;;;;;;;;;;;;;;;;;;109223;1253;59055;-81
2024/04/12 13:34:09;;;;;;;;;;;;;;;;;;109301;1251;60757;-81
2024/04/12 13:36:35;;;;;;;;;;;;;;;;;;109303;1253;59103;-81
2024/04/12 13:39:05;;;;;;;;;;;;;;;;;;109215;1253;60551;-81
2024/04/12 13:41:34;;;;;;;;;;;;;;;;;;109275;1253;59019;-82
2024/04/12 13:44:00;;;;;;;;;;;;;;;;;;109229;1252;58993;-80
2024/04/12 13:51:55;;;;;;;;;;;;;;;;;;109284;1252;59824;-81
2024/04/12 13:54:23;;;;;;;;;;;;;;;;;;109245;1253;59546;-82
2024/04/12 13:56:50;;;;;;;;;;;;;;;;;;109283;1252;59545;-82
2024/04/12 13:59:16;;;;;;;;;;;;;;;;;;109337;1251;59050;-81
2024/04/12 14:01:42;;;;;;;;;;;;;;;;;;109365;1251;59259;-82
2024/04/12 14:04:17;;;;;;;;;;;;;;;;;;109250;1253;59074;-82
2024/04/12 14:06:46;;;;;;;;;;;;;;;;;;109239;1254;59092;-81
2024/04/12 14:09:13;;;;;;;;;;;;;;;;;;109220;1256;58951;-82
2024/04/12 14:11:39;;;;;;;;;;;;;;;;;;109215;1255;59242;-81
2024/04/12 14:14:05;;;;;;;;;;;;;;;;;;109114;1257;59036;-81
2024/04/12 14:16:41;;;;;;;;;;;;;;;;;;109258;1253;59237;-82
2024/04/12 14:19:17;;;;;;;;;;;;;;;;;;109181;1257;59517;-82
2024/04/12 14:21:43;;;;;;;;;;;;;;;;;;109149;1254;59062;-81
2024/04/12 14:24:55;;;;;;;;;;;;;;;;;;109209;1254;60107;-82
2024/04/12 14:26:55;;;;;;;;;;;;;;;;;;109238;1255;59639;-81
2024/04/12 14:29:26;;;;;;;;;;;;;;;;;;109140;1254;59534;-81
2024/04/12 14:31:54;;;;;;;;;;;;;;;;;;109217;1253;59123;-82
2024/04/12 14:34:20;;;;;;;;;;;;;;;;;;109147;1256;59288;-82
2024/04/12 14:36:46;;;;;;;;;;;;;;;;;;109216;1252;59653;-81
2024/04/12 14:39:15;;;;;;;;;;;;;;;;;;109226;1253;60297;-81
2024/04/12 14:41:41;;;;;;;;;;;;;;;;;;109230;1253;59467;-81
2024/04/12 14:44:08;;;;;;;;;;;;;;;;;;109177;1257;59329;-82
2024/04/12 14:46:38;;;;;;;;;;;;;;;;;;109227;1254;59663;-82
2024/04/12 14:49:04;;;;;;;;;;;;;;;;;;109264;1254;62331;-81
2024/04/12 14:51:33;;;;;;;;;;;;;;;;;;109291;1256;59619;-82
2024/04/12 14:53:59;;;;;;;;;;;;;;;;;;109224;1255;60901;-81
2024/04/12 14:56:25;;;;;;;;;;;;;;;;;;109295;1254;58990;-82
2024/04/12 14:58:57;;;;;;;;;;;;;;;;;;109245;1256;59054;-81
2024/04/12 15:01:23;;;;;;;;;;;;;;;;;;109177;1257;62908;-81
2024/04/12 16:10:42;;;;;;;;;;;;;;;;;;109045;1253;62295;-81
2024/04/12 16:12:28;;;;;;;;;;;;;;;;;;109334;1254;58962;-81
2024/04/12 16:14:54;;;;;;;;;;;;;;;;;;109272;1252;59286;-81
2024/04/12 16:17:20;;;;;;;;;;;;;;;;;;109270;1252;59060;-82
2024/04/12 16:19:46;;;;;;;;;;;;;;;;;;109301;1254;59008;-81
2024/04/12 16:22:13;;;;;;;;;;;;;;;;;;109278;1254;58999;-81
2024/04/12 16:24:39;;;;;;;;;;;;;;;;;;109251;1253;59197;-82
2024/04/12 16:27:05;;;;;;;;;;;;;;;;;;109235;1254;59047;-82
2024/04/12 16:29:31;;;;;;;;;;;;;;;;;;109279;1252;59732;-81
2024/04/12 16:31:57;;;;;;;;;;;;;;;;;;109373;1253;59702;-81
2024/04/12 16:34:23;;;;;;;;;;;;;;;;;;109298;1253;59008;-81
2024/04/12 16:36:50;;;;;;;;;;;;;;;;;;109301;1253;59064;-80
2024/04/12 16:39:16;;;;;;;;;;;;;;;;;;109303;1254;59794;-80
2024/04/12 16:41:42;;;;;;;;;;;;;;;;;;109270;1252;59109;-82
2024/04/12 16:44:11;;;;;;;;;;;;;;;;;;109125;1254;59521;-80
2024/04/12 16:46:37;;;;;;;;;;;;;;;;;;109322;1253;59368;-81
2024/04/12 16:49:04;;;;;;;;;;;;;;;;;;109319;1252;59070;-81
2024/04/12 16:51:30;;;;;;;;;;;;;;;;;;109280;1253;58983;-81
2024/04/12 16:53:56;;;;;;;;;;;;;;;;;;109311;1254;59609;-81
2024/04/12 16:56:24;;;;;;;;;;;;;;;;;;109414;1251;58990;-80
2024/04/12 16:58:50;;;;;;;;;;;;;;;;;;109418;1251;59330;-81
2024/04/12 17:01:16;;;;;;;;;;;;;;;;;;109453;1251;59632;-82
2024/04/12 17:03:42;;;;;;;;;;;;;;;;;;109471;1251;59104;-81
2024/04/12 17:06:09;;;;;;;;;;;;;;;;;;109419;1251;59516;-81
2024/04/12 17:08:35;;;;;;;;;;;;;;;;;;109421;1251;59004;-81
2024/04/12 17:11:02;;;;;;;;;;;;;;;;;;109442;1251;59398;-81
2024/04/12 17:13:29;;;;;;;;;;;;;;;;;;109397;1251;59061;-80
2024/04/12 17:15:55;;;;;;;;;;;;;;;;;;109401;1251;59554;-80
2024/04/12 17:18:21;;;;;;;;;;;;;;;;;;109432;1251;59028;-81
2024/04/12 17:20:47;;;;;;;;;;;;;;;;;;109462;1251;59398;-82
2024/04/12 17:23:14;;;;;;;;;;;;;;;;;;109410;1251;59332;-80
2024/04/12 17:25:40;;;;;;;;;;;;;;;;;;109338;1253;59560;-80
2024/04/12 17:28:09;;;;;;;;;;;;;;;;;;109329;1253;58967;-82
2024/04/12 17:30:35;;;;;;;;;;;;;;;;;;109347;1253;58910;-81
2024/04/12 17:33:02;;;;;;;;;;;;;;;;;;109218;1252;59050;-82
2024/04/12 17:35:28;;;;;;;;;;;;;;;;;;109330;1254;59638;-82
2024/04/12 17:37:54;;;;;;;;;;;;;;;;;;109337;1253;59441;-82
2024/04/12 17:40:20;;;;;;;;;;;;;;;;;;109337;1254;59430;-81
2024/04/12 17:42:46;;;;;;;;;;;;;;;;;;109350;1254;58998;-80
2024/04/12 17:45:13;;;;;;;;;;;;;;;;;;109341;1252;59587;-80
2024/04/12 17:47:39;;;;;;;;;;;;;;;;;;109326;1252;59541;-80
2024/04/12 17:50:10;;;;;;;;;;;;;;;;;;109380;1253;59551;-81
2024/04/12 17:52:38;;;;;;;;;;;;;;;;;;109434;1251;58980;-81
2024/04/12 17:55:05;;;;;;;;;;;;;;;;;;109329;1252;59111;-80
2024/04/12 17:57:31;;;;;;;;;;;;;;;;;;109454;1251;58941;-80
2024/04/12 17:59:57;;;;;;;;;;;;;;;;;;109482;1251;58963;-81
2024/04/12 18:02:24;;;;;;;;;;;;;;;;;;109490;1250;58923;-81
2024/04/12 18:04:50;;;;;;;;;;;;;;;;;;109457;1251;59061;-81
2024/04/12 18:07:16;;;;;;;;;;;;;;;;;;109440;1251;59586;-81
2024/04/12 18:09:44;;;;;;;;;;;;;;;;;;109477;1251;59397;-82
2024/04/12 18:12:11;;;;;;;;;;;;;;;;;;109391;1251;178623;-81
2024/04/12 18:14:38;;;;;;;;;;;;;;;;;;109415;1251;59501;-81
2024/04/12 18:17:04;;;;;;;;;;;;;;;;;;109459;1251;59616;-81
2024/04/12 18:19:30;;;;;;;;;;;;;;;;;;109485;1251;59115;-81
2024/04/12 18:21:56;;;;;;;;;;;;;;;;;;109431;1251;59059;-80
2024/04/12 18:24:24;;;;;;;;;;;;;;;;;;109382;1251;59212;-81
2024/04/12 18:26:50;;;;;;;;;;;;;;;;;;109350;1252;59473;-81
2024/04/12 18:29:17;;;;;;;;;;;;;;;;;;109226;1252;59029;-80
2024/04/12 18:31:46;;;;;;;;;;;;;;;;;;109340;1252;59075;-80
2024/04/12 18:34:15;;;;;;;;;;;;;;;;;;109310;1252;59145;-79
2024/04/12 18:36:50;;;;;;;;;;;;;;;;;;109321;1253;61958;-80
2024/04/12 18:47:30;;;;;;;;;;;;;;;;;;109368;1252;58987;-79
2024/04/12 18:49:57;;;;;;;;;;;;;;;;;;109382;1252;59561;-80
2024/04/12 18:52:24;;;;;;;;;;;;;;;;;;109328;1252;59238;-79
2024/04/12 18:54:51;;;;;;;;;;;;;;;;;;109353;1252;59611;-80
2024/04/12 18:57:17;;;;;;;;;;;;;;;;;;109372;1251;59164;-81
2024/04/12 18:59:43;;;;;;;;;;;;;;;;;;109429;1251;59547;-80
2024/04/12 19:02:09;;;;;;;;;;;;;;;;;;109494;1251;59585;-79
2024/04/12 19:04:35;;;;;;;;;;;;;;;;;;109472;1251;59084;-79
2024/04/12 19:07:02;;;;;;;;;;;;;;;;;;109415;1251;59033;-79
2024/04/12 19:09:29;;;;;;;;;;;;;;;;;;109369;1252;59057;-80
2024/04/12 19:11:56;;;;;;;;;;;;;;;;;;109330;1253;59397;-80
2024/04/12 19:14:24;;;;;;;;;;;;;;;;;;109380;1252;59349;-79
2024/04/12 19:16:50;;;;;;;;;;;;;;;;;;109329;1252;59237;-80